createdAt,value
2023-11-12T00:02:24.333Z,1.60
2023-11-12T00:04:51.544Z,1.38
2023-11-12T00:07:18.773Z,1.63
2023-11-12T00:09:46.065Z,1.30
2023-11-12T00:12:13.227Z,2.05
2023-11-12T00:14:42.405Z,1.20
2023-11-12T00:17:10.594Z,2.33
2023-11-12T00:19:37.825Z,1.35
2023-11-12T00:22:06.952Z,1.40
2023-11-12T00:24:34.315Z,1.38
2023-11-12T00:27:01.448Z,1.10
2023-11-12T00:29:28.542Z,1.52
2023-11-12T00:31:55.736Z,1.33
2023-11-12T00:34:22.853Z,2.35
2023-11-12T00:36:50.738Z,1.75
2023-11-12T00:39:17.855Z,1.35
2023-11-12T00:41:45.222Z,1.60
2023-11-12T00:44:13.105Z,1.63
2023-11-12T00:46:42.418Z,1.45
2023-11-12T00:49:09.786Z,1.08
2023-11-12T00:51:37.297Z,1.75
2023-11-12T00:54:04.888Z,1.77
2023-11-12T00:56:32.025Z,1.20
2023-11-12T00:58:59.196Z,1.52
2023-11-12T01:01:26.638Z,1.58
2023-11-12T01:03:54.114Z,1.40
2023-11-12T01:06:21.484Z,1.10
2023-11-12T01:08:48.796Z,2.85
2023-11-12T01:11:16.714Z,1.30
2023-11-12T01:13:43.960Z,1.00
2023-11-12T01:16:11.395Z,1.65
2023-11-12T01:18:41.764Z,1.92
2023-11-12T01:21:10.332Z,1.50
2023-11-12T01:23:38.098Z,2.13
2023-11-12T01:26:08.054Z,1.67
2023-11-12T01:28:35.715Z,1.83
2023-11-12T01:31:03.485Z,1.20
2023-11-12T01:33:31.115Z,1.60
2023-11-12T01:35:58.801Z,1.42
2023-11-12T01:38:25.927Z,2.08
2023-11-12T01:40:55.855Z,2.00
2023-11-12T01:43:23.104Z,2.55
2023-11-12T01:45:50.946Z,2.00
2023-11-12T01:48:18.492Z,2.28
2023-11-12T01:50:45.927Z,2.30
2023-11-12T01:53:15.872Z,2.50
2023-11-12T01:55:45.463Z,1.85
2023-11-12T01:58:14.054Z,2.22
2023-11-12T02:00:41.696Z,1.92
2023-11-12T02:03:14.447Z,2.70
2023-11-12T02:05:43.637Z,1.90
2023-11-12T02:08:11.168Z,2.30
2023-11-12T02:10:38.604Z,2.28
2023-11-12T02:13:06.819Z,1.75
2023-11-12T02:15:35.890Z,1.70
2023-11-12T02:18:03.603Z,2.20
2023-11-12T02:20:31.039Z,2.47
2023-11-12T02:22:58.247Z,2.08
2023-11-12T02:25:25.473Z,2.30
2023-11-12T02:27:52.653Z,2.10
2023-11-12T02:30:20.521Z,2.03
2023-11-12T02:32:48.900Z,2.47
2023-11-12T02:35:16.519Z,2.00
2023-11-12T02:37:43.690Z,2.00
2023-11-12T02:40:13.528Z,2.00
2023-11-12T02:42:40.962Z,2.13
2023-11-12T02:45:09.802Z,2.47
2023-11-12T02:47:37.172Z,2.97
2023-11-12T02:50:28.822Z,2.80
2023-11-12T02:52:56.083Z,2.70
2023-11-12T02:55:23.203Z,2.42
2023-11-12T02:57:50.322Z,2.63
2023-11-12T03:00:17.951Z,2.05
2023-11-12T03:02:48.075Z,2.28
2023-11-12T03:05:15.860Z,2.05
2023-11-12T03:07:43.375Z,1.80
2023-11-12T03:10:10.696Z,2.03
2023-11-12T03:12:39.397Z,1.98
2023-11-12T03:15:08.236Z,2.33
2023-11-12T03:17:35.865Z,2.58
2023-11-12T03:20:05.704Z,2.13
2023-11-12T03:22:34.740Z,2.22
2023-11-12T03:25:03.202Z,2.05
2023-11-12T03:27:34.417Z,2.30
2023-11-12T03:30:01.817Z,3.58
2023-11-12T03:32:32.267Z,1.98
2023-11-12T03:35:02.023Z,2.10
2023-11-12T03:37:31.644Z,2.75
2023-11-12T03:39:58.840Z,2.30
2023-11-12T03:42:25.982Z,1.67
2023-11-12T03:44:53.166Z,1.63
2023-11-12T03:47:20.713Z,1.90
2023-11-12T03:49:47.857Z,1.98
2023-11-12T03:52:15.711Z,2.00
2023-11-12T03:54:43.286Z,1.73
2023-11-12T03:57:10.880Z,2.92
2023-11-12T03:59:38.240Z,2.30
2023-11-12T04:02:06.324Z,1.88
2023-11-12T04:04:34.195Z,2.15
2023-11-12T04:07:01.598Z,2.20
2023-11-12T04:09:28.899Z,2.03
2023-11-12T04:11:56.190Z,1.98
2023-11-12T04:14:24.409Z,2.00
2023-11-12T04:16:51.648Z,2.00
2023-11-12T04:19:19.059Z,2.22
2023-11-12T04:21:48.237Z,2.20
2023-11-12T04:24:15.400Z,1.95
2023-11-12T04:26:42.747Z,2.10
2023-11-12T04:29:10.410Z,1.63
2023-11-12T04:31:37.949Z,1.80
2023-11-12T04:34:05.154Z,2.15
2023-11-12T04:36:36.652Z,1.88
2023-11-12T04:39:05.101Z,1.70
2023-11-12T04:41:32.820Z,1.85
2023-11-12T04:44:00.625Z,2.03
2023-11-12T04:46:29.285Z,1.65
2023-11-12T04:48:56.516Z,2.22
2023-11-12T04:51:24.048Z,5.15
2023-11-12T04:53:54.370Z,5.10
2023-11-12T04:56:25.335Z,5.05
2023-11-12T04:58:53.115Z,5.00
2023-11-12T05:01:26.140Z,4.50
2023-11-12T05:03:58.200Z,3.25
2023-11-12T05:06:30.842Z,2.85
2023-11-12T05:08:58.486Z,2.28
2023-11-12T05:11:26.657Z,2.17
2023-11-12T05:13:54.614Z,3.22
2023-11-12T05:16:22.921Z,1.92
2023-11-12T05:18:50.188Z,1.70
2023-11-12T05:21:19.082Z,2.05
2023-11-12T05:23:46.227Z,1.95
2023-11-12T05:26:15.055Z,1.50
2023-11-12T05:28:42.380Z,1.92
2023-11-12T05:31:11.632Z,1.77
2023-11-12T05:33:39.648Z,2.05
2023-11-12T05:36:07.150Z,1.60
2023-11-12T05:38:35.684Z,1.70
2023-11-12T05:41:03.076Z,1.85
2023-11-12T05:43:30.144Z,2.58
2023-11-12T05:45:57.248Z,2.15
2023-11-12T05:48:24.476Z,1.90
2023-11-12T05:50:51.584Z,1.80
2023-11-12T05:53:20.160Z,1.60
2023-11-12T05:55:47.264Z,2.10
2023-11-12T05:58:14.657Z,1.92
2023-11-12T06:00:41.844Z,2.13
2023-11-12T06:03:09.028Z,1.98
2023-11-12T06:05:36.177Z,2.05
2023-11-12T06:08:04.942Z,4.55
2023-11-12T06:10:32.754Z,6.07
2023-11-12T06:12:59.798Z,5.30
2023-11-12T06:15:28.416Z,3.60
2023-11-12T06:17:56.209Z,4.05
2023-11-12T06:20:24.781Z,3.55
2023-11-12T06:22:51.839Z,2.72
2023-11-12T06:25:19.025Z,3.50
2023-11-12T06:27:48.616Z,2.88
2023-11-12T06:30:15.805Z,3.13
2023-11-12T06:32:44.081Z,2.42
2023-11-12T06:35:11.324Z,2.35
2023-11-12T06:37:38.654Z,3.63
2023-11-12T06:40:08.068Z,4.50
2023-11-12T06:42:35.301Z,3.50
2023-11-12T06:45:02.523Z,2.05
2023-11-12T06:47:31.422Z,2.28
2023-11-12T06:49:58.783Z,2.42
2023-11-12T06:52:25.981Z,2.13
2023-11-12T06:54:53.302Z,2.38
2023-11-12T06:57:20.592Z,2.38
2023-11-12T06:59:48.000Z,1.73
2023-11-12T07:02:16.541Z,2.22
2023-11-12T07:04:43.765Z,1.58
2023-11-12T07:07:16.666Z,1.70
2023-11-12T07:09:47.189Z,1.45
2023-11-12T07:12:16.488Z,1.50
2023-11-12T07:14:44.288Z,1.67
2023-11-12T07:17:11.793Z,1.70
2023-11-12T07:19:39.221Z,1.38
2023-11-12T07:22:06.391Z,1.65
2023-11-12T07:24:38.620Z,1.25
2023-11-12T07:27:05.882Z,1.23
2023-11-12T07:29:33.095Z,1.75
2023-11-12T07:32:00.327Z,1.90
2023-11-12T07:34:27.692Z,1.65
2023-11-12T07:36:54.886Z,1.90
2023-11-12T07:39:21.990Z,2.10
2023-11-12T07:41:49.203Z,1.90
2023-11-12T07:44:23.639Z,1.60
2023-11-12T07:46:51.275Z,1.50
2023-11-12T07:49:18.663Z,1.40
2023-11-12T07:51:45.886Z,1.27
2023-11-12T07:54:13.290Z,1.65
2023-11-12T07:56:42.539Z,1.23
2023-11-12T07:59:10.378Z,1.40
2023-11-12T08:01:37.757Z,1.60
2023-11-12T08:04:05.156Z,1.35
2023-11-12T08:06:32.337Z,1.95
2023-11-12T08:09:01.265Z,1.75
2023-11-12T08:11:29.804Z,1.50
2023-11-12T08:13:57.103Z,1.58
2023-11-12T08:16:25.723Z,1.63
2023-11-12T08:18:54.658Z,1.67
2023-11-12T08:21:22.384Z,2.03
2023-11-12T08:23:49.851Z,2.10
2023-11-12T08:26:17.019Z,1.45
2023-11-12T08:28:44.184Z,2.00
2023-11-12T08:31:11.263Z,1.55
2023-11-12T08:33:39.099Z,2.33
2023-11-12T08:36:06.620Z,2.17
2023-11-12T08:38:35.886Z,3.00
2023-11-12T08:41:03.809Z,3.42
2023-11-12T08:43:30.845Z,4.90
2023-11-12T08:45:58.174Z,4.63
2023-11-12T08:48:32.610Z,2.88
2023-11-12T08:51:00.469Z,2.17
2023-11-12T08:53:28.795Z,2.03
2023-11-12T08:55:56.149Z,1.73
2023-11-12T08:58:24.411Z,2.00
2023-11-12T09:00:51.941Z,2.58
2023-11-12T09:03:19.241Z,2.00
2023-11-12T09:05:46.730Z,1.85
2023-11-12T09:08:14.088Z,1.90
2023-11-12T09:10:42.544Z,2.00
2023-11-12T09:13:10.804Z,2.13
2023-11-12T09:15:39.060Z,2.13
2023-11-12T09:18:06.851Z,2.50
2023-11-12T09:20:34.199Z,2.90
2023-11-12T09:23:01.311Z,2.25
2023-11-12T09:25:28.917Z,3.22
2023-11-12T09:27:57.219Z,3.22
2023-11-12T09:30:25.004Z,3.10
2023-11-12T09:32:52.318Z,3.22
2023-11-12T09:35:20.013Z,4.00
2023-11-12T09:37:47.202Z,3.63
2023-11-12T09:40:14.722Z,2.72
2023-11-12T09:42:49.525Z,3.42
2023-11-12T09:45:19.753Z,3.80
2023-11-12T09:47:56.047Z,3.42
2023-11-12T09:50:24.981Z,3.13
2023-11-12T09:52:53.893Z,3.53
2023-11-12T09:55:21.966Z,3.20
2023-11-12T09:57:53.124Z,2.97
2023-11-12T10:00:20.778Z,2.58
2023-11-12T10:02:48.373Z,2.45
2023-11-12T10:05:16.529Z,2.10
2023-11-12T10:07:45.791Z,2.92
2023-11-12T10:10:32.194Z,2.50
2023-11-12T10:12:59.828Z,2.78
2023-11-12T10:15:29.350Z,2.90
2023-11-12T10:18:01.009Z,2.70
2023-11-12T10:20:32.464Z,2.90
2023-11-12T10:22:59.843Z,2.58
2023-11-12T10:25:43.981Z,2.97
2023-11-12T10:28:13.015Z,2.30
2023-11-12T10:30:41.529Z,2.30
2023-11-12T10:33:25.338Z,1.80
2023-11-12T10:35:53.531Z,2.08
2023-11-12T10:38:21.346Z,2.00
2023-11-12T10:40:59.398Z,1.92
2023-11-12T10:43:26.919Z,2.38
2023-11-12T10:45:59.000Z,1.83
2023-11-12T10:48:37.351Z,2.00
2023-11-12T10:51:07.204Z,1.83
2023-11-12T10:53:36.321Z,1.77
2023-11-12T10:56:06.715Z,1.40
2023-11-12T10:58:36.524Z,3.15
2023-11-12T11:01:06.272Z,4.38
2023-11-12T11:03:35.556Z,5.20
2023-11-12T11:06:06.734Z,3.63
2023-11-12T11:08:37.489Z,3.03
2023-11-12T11:11:09.706Z,2.60
2023-11-12T11:13:39.238Z,5.82
2023-11-12T11:16:06.990Z,8.00
2023-11-12T11:18:35.187Z,4.30
2023-11-12T11:21:05.551Z,4.07
2023-11-12T11:23:53.501Z,7.10
2023-11-12T11:26:30.319Z,5.75
2023-11-12T11:29:06.706Z,8.73
2023-11-12T11:31:34.115Z,5.60
2023-11-12T11:34:02.450Z,3.25
2023-11-12T11:36:31.033Z,3.38
2023-11-12T11:39:08.952Z,4.72
2023-11-12T11:41:36.125Z,2.42
2023-11-12T11:44:45.745Z,4.30
2023-11-12T11:47:15.777Z,3.38
2023-11-12T11:49:47.568Z,2.75
2023-11-12T11:52:31.223Z,3.50
2023-11-12T11:55:13.406Z,3.55
2023-11-12T11:57:52.037Z,3.60
2023-11-12T12:00:19.485Z,5.97
2023-11-12T12:02:47.046Z,5.53
2023-11-12T12:05:26.779Z,5.72
2023-11-12T12:08:01.521Z,5.88
2023-11-12T12:10:29.896Z,5.20
2023-11-12T12:12:57.685Z,6.85
2023-11-12T12:15:25.117Z,4.55
2023-11-12T12:17:52.422Z,5.10
2023-11-12T12:20:19.807Z,4.05
2023-11-12T12:22:48.166Z,4.10
2023-11-12T12:25:15.381Z,3.17
2023-11-12T12:27:53.631Z,4.05
2023-11-12T12:30:20.888Z,2.17
2023-11-12T12:32:47.982Z,3.25
2023-11-12T12:35:24.747Z,3.03
2023-11-12T12:37:52.251Z,2.97
2023-11-12T12:40:29.367Z,3.75
2023-11-12T12:42:57.112Z,3.47
2023-11-12T12:45:24.458Z,4.30
2023-11-12T12:47:52.127Z,4.13
2023-11-12T12:50:27.520Z,1.80
2023-11-12T12:53:15.357Z,1.70
2023-11-12T12:55:45.103Z,1.77
2023-11-12T12:58:13.251Z,2.40
2023-11-12T13:00:42.446Z,2.58
2023-11-12T13:03:24.871Z,2.60
2023-11-12T13:05:52.478Z,2.15
2023-11-12T13:08:20.799Z,2.75
2023-11-12T13:10:50.425Z,2.78
2023-11-12T13:13:18.521Z,2.80
2023-11-12T13:15:48.200Z,2.35
2023-11-12T13:18:15.616Z,3.22
2023-11-12T13:20:45.438Z,3.00
2023-11-12T13:23:12.541Z,4.38
2023-11-12T13:25:39.850Z,3.40
2023-11-12T13:28:10.142Z,3.67
2023-11-12T13:30:40.168Z,4.97
2023-11-12T13:33:08.591Z,3.90
2023-11-12T13:35:36.054Z,3.08
2023-11-12T13:38:03.396Z,3.20
2023-11-12T13:40:34.539Z,2.20
2023-11-12T13:43:05.019Z,2.53
2023-11-12T13:45:32.412Z,2.30
2023-11-12T13:47:59.632Z,2.38
2023-11-12T13:50:29.180Z,2.30
2023-11-12T13:53:00.057Z,2.20
2023-11-12T13:58:00.642Z,6.05
2023-11-12T14:00:31.705Z,2.13
2023-11-12T14:03:02.193Z,2.22
2023-11-12T14:05:29.978Z,1.98
2023-11-12T14:07:57.806Z,1.88
2023-11-12T14:10:26.558Z,1.70
2023-11-12T14:12:54.276Z,2.03
2023-11-12T14:15:23.581Z,1.80
2023-11-12T14:17:50.924Z,1.80
2023-11-12T14:20:27.982Z,2.13
2023-11-12T14:22:56.401Z,2.90
2023-11-12T14:25:24.944Z,2.72
2023-11-12T14:27:53.755Z,2.35
2023-11-12T14:30:21.306Z,2.17
2023-11-12T14:32:48.980Z,3.35
2023-11-12T14:35:17.281Z,4.25
2023-11-12T14:37:45.096Z,2.65
2023-11-12T14:40:16.248Z,2.05
2023-11-12T14:42:47.068Z,2.88
2023-11-12T14:45:25.175Z,2.40
2023-11-12T14:47:57.346Z,2.53
2023-11-12T14:50:24.643Z,2.20
2023-11-12T14:52:53.416Z,2.60
2023-11-12T14:55:26.053Z,3.20
2023-11-12T14:57:58.357Z,2.92
2023-11-12T15:00:29.841Z,3.03
2023-11-12T15:03:01.925Z,3.00
2023-11-12T15:05:29.813Z,2.58
2023-11-12T15:07:57.276Z,2.67
2023-11-12T15:10:27.932Z,2.58
2023-11-12T15:12:55.195Z,2.60
2023-11-12T15:15:23.032Z,2.38
2023-11-12T15:17:53.204Z,2.60
2023-11-12T15:20:21.856Z,2.92
2023-11-12T15:22:51.643Z,2.60
2023-11-12T15:27:50.575Z,2.97
2023-11-12T15:30:19.238Z,3.60
2023-11-12T15:32:46.986Z,4.50
2023-11-12T15:35:15.738Z,6.43
2023-11-12T15:37:44.099Z,7.15
2023-11-12T15:40:24.531Z,8.13
2023-11-12T15:42:55.546Z,10.55
2023-11-12T15:45:26.553Z,7.00
2023-11-12T15:50:23.831Z,8.13
2023-11-12T15:52:51.877Z,10.68
2023-11-12T15:55:19.261Z,9.07
2023-11-12T15:57:47.254Z,9.32
2023-11-12T16:00:15.723Z,9.70
2023-11-12T16:02:45.680Z,12.15
2023-11-12T16:05:17.580Z,13.02
2023-11-12T16:07:45.347Z,11.57
2023-11-12T16:10:15.787Z,11.60
2023-11-12T16:12:43.619Z,19.27
2023-11-12T16:15:16.861Z,16.38
2023-11-12T16:17:46.732Z,12.55
2023-11-12T16:20:14.404Z,10.23
2023-11-12T16:22:42.099Z,7.78
2023-11-12T16:25:13.147Z,7.53
2023-11-12T16:27:40.935Z,6.60
2023-11-12T16:30:08.853Z,6.78
2023-11-12T16:32:39.018Z,5.75
2023-11-12T16:35:07.499Z,5.55
2023-11-12T16:37:34.790Z,5.88
2023-11-12T16:40:02.344Z,6.35
2023-11-12T16:42:32.125Z,7.60
2023-11-12T16:45:00.492Z,7.30
2023-11-12T16:47:27.692Z,7.05
2023-11-12T16:49:55.412Z,7.78
2023-11-12T16:52:23.168Z,8.23
2023-11-12T16:54:50.706Z,7.25
2023-11-12T16:57:18.578Z,9.07
2023-11-12T16:59:46.862Z,11.40
2023-11-12T17:02:15.368Z,10.70
2023-11-12T17:04:43.457Z,10.60
2023-11-12T17:07:12.622Z,8.15
2023-11-12T17:09:42.297Z,13.18
2023-11-12T17:12:14.637Z,13.50
2023-11-12T17:14:45.600Z,14.32
2023-11-12T17:17:13.139Z,15.07
2023-11-12T17:19:40.794Z,12.07
2023-11-12T17:22:11.447Z,10.65
2023-11-12T17:24:38.877Z,9.18
2023-11-12T17:27:07.485Z,9.57
2023-11-12T17:29:35.261Z,8.80
2023-11-12T17:32:02.642Z,10.35
2023-11-12T17:34:32.054Z,8.90
2023-11-12T17:37:00.650Z,9.55
2023-11-12T17:39:28.000Z,8.88
2023-11-12T17:41:55.398Z,8.82
2023-11-12T17:44:22.911Z,11.95
2023-11-12T17:46:50.681Z,9.70
2023-11-12T17:49:18.262Z,9.45
2023-11-12T17:51:47.622Z,9.70
2023-11-12T17:54:17.154Z,17.42
2023-11-12T17:56:47.528Z,13.95
2023-11-12T17:59:14.768Z,15.85
2023-11-12T18:01:42.084Z,14.82
2023-11-12T18:04:09.650Z,13.50
2023-11-12T18:06:39.063Z,11.93
2023-11-12T18:09:06.367Z,12.05
2023-11-12T18:11:35.380Z,12.52
2023-11-12T18:14:05.512Z,9.85
2023-11-12T18:16:36.099Z,10.02
2023-11-12T18:19:03.578Z,9.00
2023-11-12T18:21:31.040Z,7.47
2023-11-12T18:23:58.540Z,6.95
2023-11-12T18:26:25.831Z,7.78
2023-11-12T18:28:53.500Z,8.55
2023-11-12T18:31:25.428Z,9.13
2023-11-12T18:33:53.595Z,14.27
2023-11-12T18:36:24.465Z,15.05
2023-11-12T18:38:54.759Z,16.83
2023-11-12T18:41:30.487Z,17.65
2023-11-12T18:43:57.876Z,19.40
2023-11-12T18:46:25.488Z,17.25
2023-11-12T18:48:55.342Z,16.58
2023-11-12T18:51:24.390Z,16.50
2023-11-12T18:53:58.931Z,15.02
2023-11-12T18:56:26.697Z,16.23
2023-11-12T18:58:57.196Z,16.20
2023-11-12T19:01:27.499Z,14.75
2023-11-12T19:03:55.032Z,14.10
2023-11-12T19:06:26.124Z,14.57
2023-11-12T19:09:01.912Z,12.13
2023-11-12T19:11:31.461Z,11.13
2023-11-12T19:14:08.998Z,10.68
2023-11-12T19:16:38.679Z,12.30
2023-11-12T19:19:07.274Z,8.45
2023-11-12T19:21:40.248Z,7.68
2023-11-12T19:24:11.280Z,8.40
2023-11-12T19:26:38.635Z,8.10
2023-11-12T19:29:05.773Z,8.15
2023-11-12T19:31:34.280Z,8.23
2023-11-12T19:34:02.943Z,6.32
2023-11-12T19:36:30.337Z,5.80
2023-11-12T19:38:57.512Z,4.63
2023-11-12T19:41:25.655Z,5.28
2023-11-12T19:43:54.598Z,6.78
2023-11-12T19:46:22.816Z,7.03
2023-11-12T19:48:51.390Z,7.38
2023-11-12T19:51:18.713Z,6.93
2023-11-12T19:53:46.985Z,7.18
2023-11-12T19:56:14.224Z,7.20
2023-11-12T19:58:42.012Z,8.07
2023-11-12T20:01:09.320Z,7.78
2023-11-12T20:03:36.576Z,7.07
2023-11-12T20:06:03.929Z,5.93
2023-11-12T20:08:31.345Z,7.18
2023-11-12T20:11:01.578Z,6.97
2023-11-12T20:13:28.919Z,9.63
2023-11-12T20:15:58.778Z,8.52
2023-11-12T20:18:26.144Z,9.75
2023-11-12T20:20:55.154Z,9.95
2023-11-12T20:23:22.657Z,9.32
2023-11-12T20:25:49.958Z,11.15
2023-11-12T20:28:17.418Z,10.55
2023-11-12T20:30:45.915Z,10.65
2023-11-12T20:33:17.483Z,10.75
2023-11-12T20:35:48.401Z,10.27
2023-11-12T20:38:16.573Z,10.88
2023-11-12T20:40:44.943Z,14.48
2023-11-12T20:43:12.689Z,10.43
2023-11-12T20:45:41.957Z,8.75
2023-11-12T20:48:09.350Z,9.98
2023-11-12T20:50:40.076Z,9.60
2023-11-12T20:53:11.998Z,8.75
2023-11-12T20:55:40.574Z,8.65
2023-11-12T20:58:08.240Z,9.48
2023-11-12T21:00:37.978Z,6.72
2023-11-12T21:03:06.146Z,6.32
2023-11-12T21:05:33.347Z,8.38
2023-11-12T21:08:00.677Z,7.13
2023-11-12T21:10:33.571Z,4.68
2023-11-12T21:13:03.573Z,5.10
2023-11-12T21:15:30.837Z,5.63
2023-11-12T21:17:58.098Z,6.55
2023-11-12T21:20:26.035Z,6.40
2023-11-12T21:22:53.454Z,8.43
2023-11-12T21:25:21.749Z,7.47
2023-11-12T21:27:49.213Z,7.20
2023-11-12T21:30:22.471Z,9.02
2023-11-12T21:32:49.850Z,6.95
2023-11-12T21:35:20.745Z,8.75
2023-11-12T21:37:48.204Z,6.05
2023-11-12T21:40:15.569Z,7.40
2023-11-12T21:42:43.930Z,7.35
2023-11-12T21:45:11.679Z,7.15
2023-11-12T21:47:40.924Z,6.80
2023-11-12T21:50:08.586Z,6.85
2023-11-12T21:52:36.503Z,12.98
2023-11-12T21:55:05.014Z,12.13
2023-11-12T21:57:32.252Z,9.65
2023-11-12T21:59:59.416Z,8.63
2023-11-12T22:02:27.046Z,8.25
2023-11-12T22:04:54.323Z,7.57
2023-11-12T22:07:24.791Z,8.60
2023-11-12T22:09:54.950Z,8.82
2023-11-12T22:12:22.133Z,9.23
2023-11-12T22:14:49.925Z,8.75
2023-11-12T22:17:17.131Z,6.90
2023-11-12T22:19:44.856Z,7.15
2023-11-12T22:22:13.503Z,7.78
2023-11-12T22:24:41.339Z,7.13
2023-11-12T22:27:08.524Z,8.68
2023-11-12T22:29:35.677Z,11.23
2023-11-12T22:32:02.877Z,11.05
2023-11-12T22:34:32.746Z,11.27
2023-11-12T22:37:00.069Z,13.48
2023-11-12T22:39:27.232Z,13.52
2023-11-12T22:41:54.379Z,13.00
2023-11-12T22:44:21.515Z,13.40
2023-11-12T22:46:49.166Z,9.77
2023-11-12T22:49:16.557Z,10.10
2023-11-12T22:51:43.754Z,9.70
2023-11-12T22:54:12.463Z,10.30
2023-11-12T22:56:39.536Z,12.15
2023-11-12T22:59:06.781Z,10.57
2023-11-12T23:01:33.988Z,8.73
2023-11-12T23:04:01.113Z,7.80
2023-11-12T23:06:28.653Z,7.18
2023-11-12T23:08:58.265Z,7.07
2023-11-12T23:11:29.890Z,5.82
2023-11-12T23:13:57.246Z,8.57
2023-11-12T23:16:27.518Z,8.45
2023-11-12T23:18:54.956Z,8.13
2023-11-12T23:21:22.226Z,9.00
2023-11-12T23:23:49.379Z,8.15
2023-11-12T23:26:16.536Z,6.90
2023-11-12T23:28:43.688Z,7.15
2023-11-12T23:31:10.794Z,6.35
2023-11-12T23:33:38.271Z,7.00
2023-11-12T23:36:06.096Z,6.25
2023-11-12T23:38:33.350Z,7.63
2023-11-12T23:41:00.667Z,7.47
2023-11-12T23:43:27.754Z,6.65
2023-11-12T23:45:54.914Z,6.97
2023-11-12T23:48:22.063Z,5.88
2023-11-12T23:50:49.185Z,5.88
2023-11-12T23:53:16.212Z,4.55
2023-11-12T23:55:44.877Z,3.33
2023-11-12T23:58:12.601Z,4.18
